createdAt,value
2023-12-13T00:00:58.522Z,0.00
2023-12-13T00:01:58.524Z,0.00
2023-12-13T00:02:58.497Z,0.00
2023-12-13T00:03:58.551Z,0.00
2023-12-13T00:04:58.655Z,0.00
2023-12-13T00:05:58.450Z,0.00
2023-12-13T00:06:58.456Z,0.00
2023-12-13T00:07:58.459Z,0.00
2023-12-13T00:08:58.457Z,0.00
2023-12-13T00:09:58.461Z,0.00
2023-12-13T00:10:58.445Z,0.00
2023-12-13T00:11:58.426Z,0.00
2023-12-13T00:12:58.402Z,0.00
2023-12-13T00:13:58.403Z,0.00
2023-12-13T00:14:58.389Z,0.00
2023-12-13T00:15:58.369Z,0.00
2023-12-13T00:16:58.360Z,0.00
2023-12-13T00:17:58.417Z,0.00
2023-12-13T00:18:58.432Z,0.00
2023-12-13T00:19:58.407Z,0.00
2023-12-13T00:20:58.319Z,0.00
2023-12-13T00:21:58.313Z,0.00
2023-12-13T00:22:58.337Z,0.00
2023-12-13T00:23:58.318Z,0.00
2023-12-13T00:24:58.284Z,0.00
2023-12-13T00:25:58.266Z,0.00
2023-12-13T00:26:58.271Z,0.00
2023-12-13T00:27:58.301Z,0.00
2023-12-13T00:28:58.263Z,0.00
2023-12-13T00:29:58.221Z,0.00
2023-12-13T00:30:58.284Z,0.00
2023-12-13T00:31:58.230Z,0.00
2023-12-13T00:32:58.391Z,0.00
2023-12-13T00:33:58.287Z,0.00
2023-12-13T00:34:58.201Z,0.00
2023-12-13T00:35:58.187Z,0.00
2023-12-13T00:36:58.215Z,0.00
2023-12-13T00:37:58.227Z,0.00
2023-12-13T00:38:58.171Z,0.00
2023-12-13T00:39:58.148Z,0.00
2023-12-13T00:40:58.168Z,0.00
2023-12-13T00:41:58.134Z,0.00
2023-12-13T00:42:58.165Z,0.00
2023-12-13T00:43:58.108Z,0.00
2023-12-13T00:44:58.083Z,0.00
2023-12-13T00:45:58.098Z,0.00
2023-12-13T00:46:58.100Z,0.00
2023-12-13T00:47:58.184Z,0.00
2023-12-13T00:48:58.150Z,0.00
2023-12-13T00:49:58.122Z,0.00
2023-12-13T00:50:58.087Z,0.00
2023-12-13T00:51:58.042Z,0.00
2023-12-13T00:52:58.014Z,0.00
2023-12-13T00:53:58.008Z,0.00
2023-12-13T00:54:58.027Z,0.00
2023-12-13T00:55:58.109Z,0.00
2023-12-13T00:56:57.983Z,0.00
2023-12-13T00:57:57.975Z,0.00
2023-12-13T00:58:57.968Z,0.00
2023-12-13T00:59:58.001Z,0.00
2023-12-13T01:00:57.982Z,0.00
2023-12-13T01:01:57.952Z,0.00
2023-12-13T01:02:57.963Z,0.00
2023-12-13T01:03:57.960Z,0.00
2023-12-13T01:04:58.096Z,0.00
2023-12-13T01:05:57.938Z,0.00
2023-12-13T01:06:57.910Z,0.00
2023-12-13T01:07:57.903Z,0.00
2023-12-13T01:08:57.854Z,0.00
2023-12-13T01:09:57.868Z,0.00
2023-12-13T01:10:57.922Z,0.00
2023-12-13T01:11:57.825Z,0.00
2023-12-13T01:12:57.843Z,0.00
2023-12-13T01:13:57.824Z,0.00
2023-12-13T01:14:57.822Z,0.00
2023-12-13T01:15:57.810Z,0.00
2023-12-13T01:16:57.832Z,0.00
2023-12-13T01:17:57.795Z,0.00
2023-12-13T01:18:57.848Z,0.00
2023-12-13T01:19:59.602Z,0.00
2023-12-13T01:20:57.776Z,0.00
2023-12-13T01:21:57.736Z,0.00
2023-12-13T01:22:57.727Z,0.00
2023-12-13T01:23:57.894Z,0.00
2023-12-13T01:24:57.707Z,0.00
2023-12-13T01:25:57.728Z,0.00
2023-12-13T01:26:57.683Z,0.00
2023-12-13T01:27:57.709Z,0.00
2023-12-13T01:28:57.791Z,0.00
2023-12-13T01:29:57.695Z,0.00
2023-12-13T01:30:57.729Z,0.00
2023-12-13T01:31:57.670Z,0.00
2023-12-13T01:32:57.760Z,0.00
2023-12-13T01:33:57.834Z,0.00
2023-12-13T01:34:57.623Z,0.00
2023-12-13T01:35:57.622Z,0.00
2023-12-13T01:36:57.628Z,0.00
2023-12-13T01:37:57.700Z,0.00
2023-12-13T01:38:57.576Z,0.00
2023-12-13T01:39:57.608Z,0.00
2023-12-13T01:41:11.583Z,0.00
2023-12-13T01:41:57.580Z,0.00
2023-12-13T01:42:57.568Z,0.00
2023-12-13T01:43:57.582Z,0.00
2023-12-13T01:44:57.529Z,0.00
2023-12-13T01:45:57.521Z,0.00
2023-12-13T01:46:57.596Z,0.00
2023-12-13T01:47:57.593Z,0.00
2023-12-13T01:48:57.517Z,0.00
2023-12-13T01:49:57.512Z,0.00
2023-12-13T01:50:57.479Z,0.00
2023-12-13T01:51:57.477Z,0.00
2023-12-13T01:52:57.447Z,0.00
2023-12-13T01:53:57.444Z,0.00
2023-12-13T01:54:57.436Z,0.00
2023-12-13T01:55:57.445Z,0.00
2023-12-13T01:56:57.434Z,0.00
2023-12-13T01:57:57.396Z,0.00
2023-12-13T01:58:57.407Z,0.00
2023-12-13T01:59:57.413Z,0.00
2023-12-13T02:00:57.492Z,0.00
2023-12-13T02:01:57.430Z,0.00
2023-12-13T02:02:57.346Z,0.00
2023-12-13T02:03:57.365Z,0.00
2023-12-13T02:04:57.395Z,0.00
2023-12-13T02:05:57.369Z,0.00
2023-12-13T02:06:57.311Z,0.00
2023-12-13T02:07:57.342Z,0.00
2023-12-13T02:08:57.331Z,0.00
2023-12-13T02:09:57.292Z,0.00
2023-12-13T02:10:57.343Z,0.00
2023-12-13T02:11:57.267Z,0.00
2023-12-13T02:12:57.261Z,0.00
2023-12-13T02:13:57.333Z,0.00
2023-12-13T02:14:57.268Z,0.00
2023-12-13T02:15:57.269Z,0.00
2023-12-13T02:16:57.222Z,0.00
2023-12-13T02:17:57.261Z,0.00
2023-12-13T02:18:57.240Z,0.00
2023-12-13T02:19:57.262Z,0.00
2023-12-13T02:20:57.177Z,0.00
2023-12-13T02:21:57.164Z,0.00
2023-12-13T02:22:57.242Z,0.00
2023-12-13T02:23:57.159Z,0.00
2023-12-13T02:24:57.155Z,0.00
2023-12-13T02:25:57.136Z,0.00
2023-12-13T02:26:57.114Z,0.00
2023-12-13T02:27:57.108Z,0.00
2023-12-13T02:28:57.197Z,0.00
2023-12-13T02:29:57.106Z,0.00
2023-12-13T02:30:57.114Z,0.00
2023-12-13T02:31:57.097Z,0.00
2023-12-13T02:32:57.124Z,0.00
2023-12-13T02:33:57.122Z,0.00
2023-12-13T02:34:57.102Z,0.00
2023-12-13T02:35:57.026Z,0.00
2023-12-13T02:36:57.024Z,0.00
2023-12-13T02:37:57.138Z,0.00
2023-12-13T02:38:57.036Z,0.00
2023-12-13T02:39:57.017Z,0.00
2023-12-13T02:40:57.040Z,0.00
2023-12-13T02:41:56.972Z,0.00
2023-12-13T02:42:56.970Z,0.00
2023-12-13T02:43:56.969Z,0.00
2023-12-13T02:44:56.997Z,0.00
2023-12-13T02:45:56.969Z,0.00
2023-12-13T02:46:56.991Z,0.00
2023-12-13T02:47:57.057Z,0.00
2023-12-13T02:48:57.024Z,0.00
2023-12-13T02:49:56.924Z,0.00
2023-12-13T02:50:56.894Z,0.00
2023-12-13T02:51:56.967Z,0.00
2023-12-13T02:52:56.890Z,0.00
2023-12-13T02:53:56.853Z,0.00
2023-12-13T02:54:56.858Z,0.00
2023-12-13T02:55:56.941Z,0.00
2023-12-13T02:56:56.940Z,0.00
2023-12-13T02:57:56.812Z,0.00
2023-12-13T02:58:56.866Z,0.00
2023-12-13T02:59:56.795Z,0.00
2023-12-13T03:00:56.812Z,0.00
2023-12-13T03:01:56.850Z,0.00
2023-12-13T03:02:56.798Z,0.00
2023-12-13T03:03:56.755Z,0.00
2023-12-13T03:04:56.761Z,0.00
2023-12-13T03:05:56.771Z,0.00
2023-12-13T03:06:56.786Z,0.00
2023-12-13T03:07:56.791Z,0.00
2023-12-13T03:08:56.728Z,0.00
2023-12-13T03:09:56.688Z,0.00
2023-12-13T03:10:56.779Z,0.00
2023-12-13T03:11:56.679Z,0.00
2023-12-13T03:12:56.653Z,0.00
2023-12-13T03:13:56.745Z,0.00
2023-12-13T03:14:56.665Z,0.00
2023-12-13T03:15:56.668Z,0.00
2023-12-13T03:16:56.668Z,0.00
2023-12-13T03:17:56.828Z,0.00
2023-12-13T03:18:56.719Z,0.00
2023-12-13T03:19:56.681Z,0.00
2023-12-13T03:20:56.622Z,0.00
2023-12-13T03:21:56.623Z,0.00
2023-12-13T03:22:56.689Z,0.00
2023-12-13T03:23:58.769Z,0.00
2023-12-13T03:24:56.581Z,0.00
2023-12-13T03:25:56.640Z,0.00
2023-12-13T03:26:56.624Z,0.00
2023-12-13T03:27:56.523Z,0.00
2023-12-13T03:28:56.513Z,0.00
2023-12-13T03:29:56.613Z,0.00
2023-12-13T03:30:56.563Z,0.00
2023-12-13T03:31:56.503Z,0.00
2023-12-13T03:32:56.529Z,0.00
2023-12-13T03:33:56.492Z,0.00
2023-12-13T03:34:56.572Z,0.00
2023-12-13T03:35:56.469Z,0.00
2023-12-13T03:36:56.447Z,0.00
2023-12-13T03:37:56.433Z,0.00
2023-12-13T03:38:56.427Z,0.00
2023-12-13T03:39:56.448Z,0.00
2023-12-13T03:40:56.438Z,0.00
2023-12-13T03:41:56.399Z,0.00
2023-12-13T03:42:56.380Z,0.00
2023-12-13T03:43:56.450Z,0.00
2023-12-13T03:44:56.352Z,0.00
2023-12-13T03:45:56.396Z,0.00
2023-12-13T03:46:56.402Z,0.00
2023-12-13T03:47:56.567Z,0.00
2023-12-13T03:48:56.421Z,0.00
2023-12-13T03:49:56.440Z,0.00
2023-12-13T03:50:56.305Z,0.00
2023-12-13T03:51:56.341Z,0.00
2023-12-13T03:52:56.371Z,0.00
2023-12-13T03:53:56.298Z,0.00
2023-12-13T03:54:56.276Z,0.00
2023-12-13T03:55:56.329Z,0.00
2023-12-13T03:56:56.260Z,0.00
2023-12-13T03:57:56.305Z,0.00
2023-12-13T03:58:56.215Z,0.00
2023-12-13T03:59:56.238Z,0.00
2023-12-13T04:00:56.271Z,0.00
2023-12-13T04:01:56.206Z,0.00
2023-12-13T04:02:56.262Z,0.00
2023-12-13T04:03:56.284Z,0.00
2023-12-13T04:04:56.165Z,0.00
2023-12-13T04:05:56.182Z,0.00
2023-12-13T04:06:56.177Z,0.00
2023-12-13T04:07:56.294Z,0.00
2023-12-13T04:08:56.118Z,0.00
2023-12-13T04:09:56.132Z,0.00
2023-12-13T04:10:56.214Z,0.00
2023-12-13T04:11:56.131Z,0.00
2023-12-13T04:12:56.121Z,0.00
2023-12-13T04:13:56.130Z,0.00
2023-12-13T04:14:56.086Z,0.00
2023-12-13T04:15:56.121Z,0.00
2023-12-13T04:16:56.131Z,0.00
2023-12-13T04:17:56.178Z,0.00
2023-12-13T04:18:56.051Z,0.00
2023-12-13T04:19:56.080Z,0.00
2023-12-13T04:20:56.045Z,0.00
2023-12-13T04:21:56.053Z,0.00
2023-12-13T04:22:56.059Z,0.00
2023-12-13T04:23:55.989Z,0.00
2023-12-13T04:24:56.047Z,0.00
2023-12-13T04:25:56.089Z,0.00
2023-12-13T04:26:55.946Z,0.00
2023-12-13T04:27:55.971Z,0.00
2023-12-13T04:28:55.995Z,0.00
2023-12-13T04:29:55.938Z,0.00
2023-12-13T04:30:56.035Z,0.00
2023-12-13T04:31:55.947Z,0.00
2023-12-13T04:32:55.930Z,0.00
2023-12-13T04:33:55.957Z,0.00
2023-12-13T04:34:55.943Z,0.00
2023-12-13T04:35:55.907Z,0.00
2023-12-13T04:36:55.858Z,0.00
2023-12-13T04:37:55.862Z,0.00
2023-12-13T04:38:55.848Z,0.00
2023-12-13T04:39:55.872Z,0.00
2023-12-13T04:40:55.858Z,0.00
2023-12-13T04:41:55.819Z,0.00
2023-12-13T04:42:55.811Z,0.00
2023-12-13T04:43:55.806Z,0.00
2023-12-13T04:44:55.819Z,0.00
2023-12-13T04:45:55.788Z,0.00
2023-12-13T04:46:55.820Z,0.00
2023-12-13T04:47:55.793Z,0.00
2023-12-13T04:48:55.903Z,0.00
2023-12-13T04:49:55.785Z,0.00
2023-12-13T04:50:55.729Z,0.00
2023-12-13T04:51:55.722Z,0.00
2023-12-13T04:52:55.876Z,0.00
2023-12-13T04:53:55.734Z,0.00
2023-12-13T04:54:56.869Z,0.00
2023-12-13T04:55:55.681Z,0.00
2023-12-13T04:56:55.704Z,0.00
2023-12-13T04:57:55.683Z,0.00
2023-12-13T04:58:55.753Z,0.00
2023-12-13T04:59:55.640Z,0.00
2023-12-13T05:00:55.693Z,0.00
2023-12-13T05:01:55.648Z,0.00
2023-12-13T05:02:55.644Z,0.00
2023-12-13T05:03:55.683Z,0.00
2023-12-13T05:04:55.728Z,0.00
2023-12-13T05:05:55.620Z,0.00
2023-12-13T05:06:55.581Z,0.00
2023-12-13T05:07:55.693Z,0.00
2023-12-13T05:08:55.583Z,0.00
2023-12-13T05:09:55.554Z,0.00
2023-12-13T05:10:55.585Z,0.00
2023-12-13T05:11:55.527Z,0.00
2023-12-13T05:12:55.547Z,0.00
2023-12-13T05:13:55.584Z,0.00
2023-12-13T05:14:55.506Z,0.00
2023-12-13T05:15:55.468Z,0.00
2023-12-13T05:16:55.502Z,0.00
2023-12-13T05:17:55.516Z,0.00
2023-12-13T05:18:55.523Z,0.00
2023-12-13T05:19:56.500Z,0.00
2023-12-13T05:20:55.472Z,0.00
2023-12-13T05:21:55.457Z,0.00
2023-12-13T05:22:55.500Z,0.00
2023-12-13T05:23:55.420Z,0.00
2023-12-13T05:24:55.400Z,0.00
2023-12-13T05:25:55.431Z,0.00
2023-12-13T05:26:55.440Z,0.00
2023-12-13T05:27:55.369Z,0.00
2023-12-13T05:28:55.463Z,0.00
2023-12-13T05:29:55.356Z,0.00
2023-12-13T05:30:55.447Z,0.00
2023-12-13T05:31:57.633Z,0.00
2023-12-13T05:32:55.375Z,0.00
2023-12-13T05:33:55.367Z,0.00
2023-12-13T05:34:55.400Z,0.00
2023-12-13T05:35:55.333Z,0.00
2023-12-13T05:36:55.427Z,0.00
2023-12-13T05:37:55.342Z,0.00
2023-12-13T05:38:55.264Z,0.00
2023-12-13T05:39:55.502Z,0.00
2023-12-13T05:40:55.305Z,0.00
2023-12-13T05:41:55.247Z,0.00
2023-12-13T05:42:55.270Z,0.00
2023-12-13T05:43:55.284Z,0.00
2023-12-13T05:44:55.230Z,0.00
2023-12-13T05:45:55.249Z,0.00
2023-12-13T05:46:55.297Z,0.00
2023-12-13T05:47:55.249Z,0.00
2023-12-13T05:48:55.331Z,0.00
2023-12-13T05:49:55.369Z,0.00
2023-12-13T05:50:55.182Z,0.00
2023-12-13T05:51:55.156Z,0.00
2023-12-13T05:52:55.231Z,0.00
2023-12-13T05:53:55.132Z,0.00
2023-12-13T05:54:55.164Z,0.00
2023-12-13T05:55:55.132Z,0.00
2023-12-13T05:56:55.119Z,0.00
2023-12-13T05:57:55.091Z,0.00
2023-12-13T05:58:55.232Z,0.00
2023-12-13T05:59:55.144Z,0.00
2023-12-13T06:00:55.105Z,0.00
2023-12-13T06:01:55.073Z,0.00
2023-12-13T06:02:56.704Z,0.00
2023-12-13T06:03:55.191Z,0.00
2023-12-13T06:04:55.973Z,0.00
2023-12-13T06:05:55.067Z,0.00
2023-12-13T06:06:55.230Z,0.00
2023-12-13T06:07:55.022Z,0.00
2023-12-13T06:08:55.038Z,0.00
2023-12-13T06:09:54.980Z,0.00
2023-12-13T06:10:55.041Z,0.00
2023-12-13T06:11:54.955Z,0.00
2023-12-13T06:12:54.977Z,0.00
2023-12-13T06:13:55.024Z,0.00
2023-12-13T06:14:54.929Z,0.00
2023-12-13T06:15:54.984Z,0.00
2023-12-13T06:16:54.995Z,0.00
2023-12-13T06:17:54.993Z,0.00
2023-12-13T06:18:54.969Z,0.00
2023-12-13T06:19:55.966Z,0.00
2023-12-13T06:20:54.867Z,0.00
2023-12-13T06:21:56.478Z,0.00
2023-12-13T06:22:54.962Z,0.00
2023-12-13T06:23:54.835Z,0.00
2023-12-13T06:24:54.896Z,0.00
2023-12-13T06:25:54.892Z,0.00
2023-12-13T06:26:54.871Z,0.00
2023-12-13T06:27:54.768Z,1.00
2023-12-13T06:28:54.814Z,0.00
2023-12-13T06:29:54.781Z,0.00
2023-12-13T06:30:54.925Z,0.00
2023-12-13T06:31:54.843Z,0.00
2023-12-13T06:32:54.873Z,0.00
2023-12-13T06:33:54.693Z,1.00
2023-12-13T06:34:54.764Z,1.00
2023-12-13T06:35:54.746Z,1.00
2023-12-13T06:36:54.694Z,1.00
2023-12-13T06:37:54.708Z,1.00
2023-12-13T06:38:54.645Z,1.00
2023-12-13T06:39:54.626Z,2.00
2023-12-13T06:40:54.646Z,2.00
2023-12-13T06:41:54.655Z,2.00
2023-12-13T06:42:54.621Z,2.00
2023-12-13T06:43:54.652Z,2.00
2023-12-13T06:44:54.577Z,2.00
2023-12-13T06:45:54.578Z,3.00
2023-12-13T06:46:54.637Z,3.00
2023-12-13T06:47:54.646Z,4.00
2023-12-13T06:48:54.677Z,4.00
2023-12-13T06:49:54.560Z,5.00
2023-12-13T06:50:54.597Z,9.00
2023-12-13T06:51:54.524Z,6.00
2023-12-13T06:52:54.518Z,9.00
2023-12-13T06:53:55.992Z,11.00
2023-12-13T06:54:54.520Z,11.00
2023-12-13T06:55:54.557Z,12.00
2023-12-13T06:56:54.486Z,12.00
2023-12-13T06:57:54.473Z,14.00
2023-12-13T06:58:54.550Z,14.00
2023-12-13T06:59:54.453Z,14.00
2023-12-13T07:00:54.484Z,17.00
2023-12-13T07:01:54.471Z,17.00
2023-12-13T07:02:54.442Z,19.00
2023-12-13T07:03:54.433Z,22.00
2023-12-13T07:04:54.436Z,22.00
2023-12-13T07:05:54.450Z,23.00
2023-12-13T07:06:54.373Z,27.00
2023-12-13T07:07:54.441Z,25.00
2023-12-13T07:08:54.354Z,25.00
2023-12-13T07:09:54.384Z,25.00
2023-12-13T07:10:54.428Z,24.00
2023-12-13T07:11:54.400Z,24.00
2023-12-13T07:12:54.310Z,24.00
2023-12-13T07:13:54.382Z,28.00
2023-12-13T07:14:54.327Z,31.00
2023-12-13T07:15:54.306Z,32.00
2023-12-13T07:16:54.311Z,32.00
2023-12-13T07:17:54.315Z,33.00
2023-12-13T07:18:54.329Z,37.00
2023-12-13T07:19:54.340Z,41.00
2023-12-13T07:20:54.229Z,47.00
2023-12-13T07:21:54.215Z,54.00
2023-12-13T07:22:54.262Z,58.00
2023-12-13T07:23:54.239Z,64.00
2023-12-13T07:24:54.294Z,70.00
2023-12-13T07:25:54.214Z,79.00
2023-12-13T07:26:54.173Z,77.00
2023-12-13T07:27:54.173Z,76.00
2023-12-13T07:28:54.190Z,86.00
2023-12-13T07:29:54.198Z,96.00
2023-12-13T07:31:02.420Z,99.00
2023-12-13T07:31:54.324Z,99.00
2023-12-13T07:32:54.147Z,100.00
2023-12-13T07:33:54.298Z,105.00
2023-12-13T07:34:54.160Z,107.00
2023-12-13T07:35:54.085Z,108.00
2023-12-13T07:36:54.084Z,112.00
2023-12-13T07:37:54.121Z,119.00
2023-12-13T07:38:54.083Z,117.00
2023-12-13T07:39:54.051Z,157.00
2023-12-13T07:40:54.230Z,162.00
2023-12-13T07:41:54.052Z,139.00
2023-12-13T07:42:54.046Z,140.00
2023-12-13T07:43:54.062Z,174.00
2023-12-13T07:44:54.012Z,222.00
2023-12-13T07:45:54.055Z,217.00
2023-12-13T07:46:54.106Z,185.00
2023-12-13T07:48:04.664Z,233.00
2023-12-13T07:48:54.014Z,284.00
2023-12-13T07:49:54.041Z,319.00
2023-12-13T07:50:54.123Z,338.00
2023-12-13T07:51:53.947Z,297.00
2023-12-13T07:52:53.968Z,300.00
2023-12-13T07:53:53.921Z,355.00
2023-12-13T07:54:53.905Z,343.00
2023-12-13T07:55:53.959Z,360.00
2023-12-13T07:56:53.915Z,397.00
2023-12-13T07:57:53.882Z,555.00
2023-12-13T07:58:55.331Z,550.00
2023-12-13T07:59:53.881Z,535.00
2023-12-13T08:00:53.850Z,455.00
2023-12-13T08:01:53.918Z,414.00
2023-12-13T08:02:54.281Z,463.00
2023-12-13T08:03:53.805Z,557.00
2023-12-13T08:04:53.884Z,594.00
2023-12-13T08:05:53.836Z,508.00
2023-12-13T08:06:53.853Z,754.00
2023-12-13T08:07:53.824Z,723.00
2023-12-13T08:08:53.781Z,628.00
2023-12-13T08:09:53.771Z,525.00
2023-12-13T08:10:53.991Z,496.00
2023-12-13T08:11:53.728Z,422.00
2023-12-13T08:12:53.738Z,349.00
2023-12-13T08:13:53.837Z,516.00
2023-12-13T08:14:53.771Z,571.00
2023-12-13T08:15:53.732Z,422.00
2023-12-13T08:16:53.703Z,381.00
2023-12-13T08:17:53.903Z,336.00
2023-12-13T08:18:53.793Z,723.00
2023-12-13T08:19:53.725Z,673.00
2023-12-13T08:20:53.697Z,713.00
2023-12-13T08:21:53.657Z,725.00
2023-12-13T08:22:53.660Z,662.00
2023-12-13T08:23:53.726Z,508.00
2023-12-13T08:24:54.002Z,561.00
2023-12-13T08:25:53.704Z,673.00
2023-12-13T08:26:53.595Z,802.00
2023-12-13T08:27:53.697Z,786.00
2023-12-13T08:29:02.211Z,905.00
2023-12-13T08:29:53.588Z,896.00
2023-12-13T08:30:54.234Z,913.00
2023-12-13T08:31:53.583Z,753.00
2023-12-13T08:32:53.610Z,760.00
2023-12-13T08:33:53.626Z,790.00
2023-12-13T08:34:53.650Z,803.00
2023-12-13T08:35:53.553Z,821.00
2023-12-13T08:36:53.504Z,758.00
2023-12-13T08:37:53.590Z,737.00
2023-12-13T08:38:53.522Z,773.00
2023-12-13T08:39:53.496Z,735.00
2023-12-13T08:40:53.566Z,717.00
2023-12-13T08:41:53.447Z,924.00
2023-12-13T08:42:53.447Z,1331.00
2023-12-13T08:43:53.571Z,1234.00
2023-12-13T08:44:53.443Z,1267.00
2023-12-13T08:45:53.408Z,1381.00
2023-12-13T08:46:53.471Z,1384.00
2023-12-13T08:47:53.590Z,1382.00
2023-12-13T08:48:53.502Z,1310.00
2023-12-13T08:49:53.390Z,1251.00
2023-12-13T08:50:53.392Z,1173.00
2023-12-13T08:51:53.368Z,1035.00
2023-12-13T08:52:53.394Z,933.00
2023-12-13T08:53:53.368Z,874.00
2023-12-13T08:54:53.338Z,851.00
2023-12-13T08:55:53.370Z,894.00
2023-12-13T08:56:53.314Z,942.00
2023-12-13T08:57:53.480Z,1066.00
2023-12-13T08:58:53.420Z,1061.00
2023-12-13T08:59:59.081Z,945.00
2023-12-13T09:00:53.332Z,1157.00
2023-12-13T09:01:53.303Z,1182.00
2023-12-13T09:02:53.305Z,1188.00
2023-12-13T09:03:53.308Z,1128.00
2023-12-13T09:04:53.248Z,935.00
2023-12-13T09:05:53.250Z,880.00
2023-12-13T09:06:53.234Z,938.00
2023-12-13T09:07:53.408Z,876.00
2023-12-13T09:08:53.213Z,900.00
2023-12-13T09:09:53.194Z,1040.00
2023-12-13T09:10:53.278Z,985.00
2023-12-13T09:11:53.191Z,954.00
2023-12-13T09:12:53.179Z,1004.00
2023-12-13T09:13:53.351Z,1029.00
2023-12-13T09:14:53.134Z,860.00
2023-12-13T09:15:53.151Z,777.00
2023-12-13T09:16:53.254Z,828.00
2023-12-13T09:17:53.230Z,699.00
2023-12-13T09:18:53.168Z,749.00
2023-12-13T09:19:53.218Z,795.00
2023-12-13T09:20:53.125Z,955.00
2023-12-13T09:21:53.129Z,1050.00
2023-12-13T09:22:53.110Z,1062.00
2023-12-13T09:23:53.068Z,924.00
2023-12-13T09:24:53.052Z,867.00
2023-12-13T09:25:53.119Z,795.00
2023-12-13T09:26:53.062Z,968.00
2023-12-13T09:27:53.034Z,1231.00
2023-12-13T09:28:53.010Z,1291.00
2023-12-13T09:29:53.016Z,1004.00
2023-12-13T09:30:53.115Z,1054.00
2023-12-13T09:31:53.084Z,1032.00
2023-12-13T09:32:53.066Z,853.00
2023-12-13T09:33:53.094Z,927.00
2023-12-13T09:34:53.096Z,924.00
2023-12-13T09:35:52.969Z,917.00
2023-12-13T09:36:52.952Z,980.00
2023-12-13T09:37:52.953Z,1256.00
2023-12-13T09:38:52.934Z,1104.00
2023-12-13T09:39:59.601Z,934.00
2023-12-13T09:40:52.992Z,948.00
2023-12-13T09:41:52.946Z,1067.00
2023-12-13T09:42:52.887Z,1014.00
2023-12-13T09:43:52.952Z,1080.00
2023-12-13T09:44:52.910Z,868.00
2023-12-13T09:45:52.877Z,955.00
2023-12-13T09:46:52.890Z,874.00
2023-12-13T09:47:52.979Z,803.00
2023-12-13T09:48:52.873Z,829.00
2023-12-13T09:49:52.959Z,901.00
2023-12-13T09:50:52.886Z,951.00
2023-12-13T09:51:52.861Z,887.00
2023-12-13T09:52:52.876Z,984.00
2023-12-13T09:53:52.822Z,1052.00
2023-12-13T09:54:52.790Z,970.00
2023-12-13T09:55:52.816Z,922.00
2023-12-13T09:56:52.758Z,743.00
2023-12-13T09:57:52.765Z,814.00
2023-12-13T09:58:52.801Z,856.00
2023-12-13T09:59:52.782Z,889.00
2023-12-13T10:00:52.722Z,955.00
2023-12-13T10:01:52.745Z,825.00
2023-12-13T10:02:52.772Z,675.00
2023-12-13T10:03:52.743Z,678.00
2023-12-13T10:04:52.717Z,707.00
2023-12-13T10:05:52.752Z,769.00
2023-12-13T10:06:52.821Z,813.00
2023-12-13T10:07:52.744Z,717.00
2023-12-13T10:08:52.656Z,595.00
2023-12-13T10:09:52.634Z,667.00
2023-12-13T10:10:52.642Z,684.00
2023-12-13T10:11:52.625Z,971.00
2023-12-13T10:12:52.644Z,810.00
2023-12-13T10:13:52.613Z,572.00
2023-12-13T10:14:52.612Z,491.00
2023-12-13T10:15:52.577Z,549.00
2023-12-13T10:17:00.437Z,563.00
2023-12-13T10:17:52.676Z,448.00
2023-12-13T10:18:52.564Z,379.00
2023-12-13T10:19:52.554Z,290.00
2023-12-13T10:20:52.546Z,275.00
2023-12-13T10:21:52.545Z,294.00
2023-12-13T10:22:52.577Z,322.00
2023-12-13T10:23:52.560Z,289.00
2023-12-13T10:24:52.521Z,254.00
2023-12-13T10:25:52.523Z,302.00
2023-12-13T10:26:52.501Z,308.00
2023-12-13T10:27:52.488Z,282.00
2023-12-13T10:28:52.533Z,284.00
2023-12-13T10:29:52.449Z,289.00
2023-12-13T10:30:52.531Z,367.00
2023-12-13T10:31:52.474Z,299.00
2023-12-13T10:32:52.428Z,188.00
2023-12-13T10:33:52.435Z,196.00
2023-12-13T10:34:52.625Z,305.00
2023-12-13T10:35:52.413Z,443.00
2023-12-13T10:36:52.396Z,356.00
2023-12-13T10:37:52.412Z,333.00
2023-12-13T10:38:52.364Z,413.00
2023-12-13T10:39:52.357Z,407.00
2023-12-13T10:40:52.420Z,458.00
2023-12-13T10:41:52.359Z,562.00
2023-12-13T10:42:52.315Z,539.00
2023-12-13T10:43:52.371Z,525.00
2023-12-13T10:44:52.304Z,490.00
2023-12-13T10:45:52.310Z,482.00
2023-12-13T10:46:52.348Z,632.00
2023-12-13T10:47:52.434Z,517.00
2023-12-13T10:48:52.371Z,456.00
2023-12-13T10:49:52.303Z,377.00
2023-12-13T10:50:52.273Z,405.00
2023-12-13T10:51:52.249Z,439.00
2023-12-13T10:52:52.294Z,431.00
2023-12-13T10:53:52.233Z,371.00
2023-12-13T10:54:52.301Z,390.00
2023-12-13T10:55:52.279Z,495.00
2023-12-13T10:56:52.230Z,531.00
2023-12-13T10:57:52.409Z,652.00
2023-12-13T10:58:52.228Z,756.00
2023-12-13T10:59:52.232Z,860.00
2023-12-13T11:00:52.196Z,894.00
2023-12-13T11:01:52.247Z,624.00
2023-12-13T11:02:52.137Z,438.00
2023-12-13T11:03:52.193Z,367.00
2023-12-13T11:04:52.194Z,380.00
2023-12-13T11:05:52.112Z,525.00
2023-12-13T11:06:52.136Z,779.00
2023-12-13T11:07:52.177Z,910.00
2023-12-13T11:08:52.095Z,885.00
2023-12-13T11:09:52.109Z,903.00
2023-12-13T11:10:52.103Z,690.00
2023-12-13T11:11:52.076Z,592.00
2023-12-13T11:12:52.062Z,580.00
2023-12-13T11:13:52.128Z,579.00
2023-12-13T11:14:52.029Z,691.00
2023-12-13T11:15:52.016Z,735.00
2023-12-13T11:16:52.100Z,644.00
2023-12-13T11:17:52.023Z,541.00
2023-12-13T11:18:52.020Z,479.00
2023-12-13T11:19:52.420Z,525.00
2023-12-13T11:20:52.066Z,562.00
2023-12-13T11:21:51.964Z,656.00
2023-12-13T11:22:52.426Z,630.00
2023-12-13T11:23:51.999Z,547.00
2023-12-13T11:24:51.944Z,461.00
2023-12-13T11:25:53.900Z,387.00
2023-12-13T11:26:51.918Z,346.00
2023-12-13T11:27:51.940Z,339.00
2023-12-13T11:28:52.010Z,315.00
2023-12-13T11:29:51.909Z,398.00
2023-12-13T11:30:51.940Z,642.00
2023-12-13T11:31:52.168Z,813.00
2023-12-13T11:32:52.119Z,731.00
2023-12-13T11:33:51.938Z,628.00
2023-12-13T11:34:51.866Z,780.00
2023-12-13T11:35:51.839Z,646.00
2023-12-13T11:36:51.828Z,612.00
2023-12-13T11:37:51.886Z,589.00
2023-12-13T11:38:51.806Z,647.00
2023-12-13T11:39:51.855Z,590.00
2023-12-13T11:40:51.841Z,565.00
2023-12-13T11:41:51.797Z,568.00
2023-12-13T11:42:52.080Z,450.00
2023-12-13T11:43:51.811Z,336.00
2023-12-13T11:44:51.751Z,367.00
2023-12-13T11:45:51.753Z,467.00
2023-12-13T11:46:51.792Z,529.00
2023-12-13T11:47:52.460Z,554.00
2023-12-13T11:48:53.477Z,539.00
2023-12-13T11:49:51.728Z,544.00
2023-12-13T11:50:51.689Z,601.00
2023-12-13T11:51:51.725Z,688.00
2023-12-13T11:52:51.793Z,792.00
2023-12-13T11:53:51.672Z,853.00
2023-12-13T11:54:51.682Z,914.00
2023-12-13T11:55:51.743Z,912.00
2023-12-13T11:56:51.681Z,921.00
2023-12-13T11:57:51.645Z,909.00
2023-12-13T11:58:51.676Z,734.00
2023-12-13T11:59:51.639Z,744.00
2023-12-13T12:00:51.662Z,750.00
2023-12-13T12:01:51.633Z,792.00
2023-12-13T12:02:51.577Z,697.00
2023-12-13T12:03:51.606Z,718.00
2023-12-13T12:04:51.746Z,697.00
2023-12-13T12:05:51.667Z,676.00
2023-12-13T12:06:51.548Z,671.00
2023-12-13T12:07:51.577Z,646.00
2023-12-13T12:08:51.561Z,700.00
2023-12-13T12:09:51.561Z,761.00
2023-12-13T12:10:51.578Z,881.00
2023-12-13T12:11:51.498Z,1058.00
2023-12-13T12:12:51.504Z,1117.00
2023-12-13T12:13:51.628Z,1056.00
2023-12-13T12:14:51.558Z,936.00
2023-12-13T12:15:51.459Z,785.00
2023-12-13T12:16:51.505Z,746.00
2023-12-13T12:17:51.574Z,827.00
2023-12-13T12:18:51.537Z,737.00
2023-12-13T12:19:51.495Z,757.00
2023-12-13T12:20:51.443Z,741.00
2023-12-13T12:21:51.410Z,728.00
2023-12-13T12:22:51.518Z,871.00
2023-12-13T12:23:51.414Z,811.00
2023-12-13T12:24:51.455Z,710.00
2023-12-13T12:25:51.418Z,652.00
2023-12-13T12:26:51.382Z,753.00
2023-12-13T12:27:51.369Z,706.00
2023-12-13T12:28:51.469Z,754.00
2023-12-13T12:29:51.966Z,735.00
2023-12-13T12:30:52.588Z,627.00
2023-12-13T12:31:51.344Z,516.00
2023-12-13T12:32:51.465Z,552.00
2023-12-13T12:33:51.366Z,522.00
2023-12-13T12:34:51.338Z,538.00
2023-12-13T12:35:51.335Z,549.00
2023-12-13T12:36:51.289Z,495.00
2023-12-13T12:37:51.351Z,429.00
2023-12-13T12:38:51.276Z,439.00
2023-12-13T12:39:51.249Z,555.00
2023-12-13T12:40:51.286Z,559.00
2023-12-13T12:41:51.218Z,606.00
2023-12-13T12:42:51.272Z,509.00
2023-12-13T12:43:51.330Z,486.00
2023-12-13T12:44:51.183Z,476.00
2023-12-13T12:45:51.213Z,468.00
2023-12-13T12:46:51.220Z,415.00
2023-12-13T12:47:51.483Z,383.00
2023-12-13T12:48:51.290Z,325.00
2023-12-13T12:49:51.231Z,272.00
2023-12-13T12:50:51.194Z,250.00
2023-12-13T12:51:51.164Z,279.00
2023-12-13T12:52:51.150Z,356.00
2023-12-13T12:53:51.116Z,489.00
2023-12-13T12:54:51.121Z,572.00